Time;durP1;ratioP1;P1;durP2;ratioP2;P2;SDS_P1;SDS_P2;PMS_P1;PMS_P2;Temp;Humidity;BMP_temperature;BMP_pressure;BME280_temperature;BME280_humidity;BME280_pressure;Samples;Min_cycle;Max_cycle;Signal;HPM_P1;HPM_P2
2023/03/09 00:00:10;;;;;;;33.53;21.10;;;;;;;3.54;73.80;97358.78;5034288;28;20053;-79
2023/03/09 00:02:37;;;;;;;;;;;;;;;3.52;73.17;97362.28;5034730;28;20061;-81
2023/03/09 00:05:04;;;;;;;33.53;18.65;;;;;;;3.56;73.42;97364.69;5034025;28;20028;-81
2023/03/09 00:07:32;;;;;;;33.35;20.58;;;;;;;3.54;73.59;97366.56;5033843;28;20135;-81
2023/03/09 00:09:58;;;;;;;33.20;20.20;;;;;;;3.51;73.40;97368.44;5016607;28;20045;-80
2023/03/09 00:12:25;;;;;;;32.95;19.65;;;;;;;3.50;73.51;97371.13;5034184;28;20061;-81
2023/03/09 00:14:53;;;;;;;36.95;22.80;;;;;;;3.49;73.67;97372.06;5033558;28;20071;-80
2023/03/09 00:17:20;;;;;;;34.50;21.05;;;;;;;3.50;73.81;97373.72;5016247;28;20144;-80
2023/03/09 00:19:47;;;;;;;36.70;21.75;;;;;;;3.50;73.98;97379.78;5033852;28;20529;-79
2023/03/09 00:22:13;;;;;;;35.97;22.25;;;;;;;3.51;73.73;97378.84;5034129;28;20064;-81
2023/03/09 00:24:45;;;;;;;36.80;22.20;;;;;;;3.52;74.03;97390.09;5033867;28;20047;-81
2023/03/09 00:27:13;;;;;;;37.13;22.35;;;;;;;3.52;73.99;97393.50;5015785;28;20056;-80
2023/03/09 00:29:40;;;;;;;35.63;22.23;;;;;;;3.55;74.04;97395.06;5033772;28;20076;-81
2023/03/09 00:32:07;;;;;;;34.97;22.45;;;;;;;3.56;73.84;97391.53;5033878;28;20045;-81
2023/03/09 00:34:33;;;;;;;38.13;23.13;;;;;;;3.58;74.09;97401.81;5035406;28;20107;-80
2023/03/09 00:37:00;;;;;;;39.00;23.45;;;;;;;3.59;73.77;97408.72;5033521;28;20046;-80
2023/03/09 00:39:26;;;;;;;40.05;22.98;;;;;;;3.60;73.71;97402.56;5033818;28;20505;-80
2023/03/09 00:41:53;;;;;;;40.78;24.40;;;;;;;3.62;73.93;97414.53;5033900;28;20410;-81
2023/03/09 00:44:20;;;;;;;42.42;25.73;;;;;;;3.63;73.48;97412.78;5033982;28;20053;-79
2023/03/09 00:46:46;;;;;;;38.55;23.85;;;;;;;3.64;73.69;97428.28;5032888;28;20104;-80
2023/03/09 00:49:14;;;;;;;35.50;23.08;;;;;;;3.65;74.10;97410.91;5033878;28;20056;-80
2023/03/09 00:51:42;;;;;;;37.28;24.20;;;;;;;3.67;73.57;97408.19;5033709;28;20053;-80
2023/03/09 00:54:11;;;;;;;38.13;23.90;;;;;;;3.67;73.70;97400.38;5016089;28;20053;-80
2023/03/09 00:56:39;;;;;;;36.38;23.25;;;;;;;3.69;73.70;97407.16;5014279;28;20085;-80
2023/03/09 00:59:05;;;;;;;38.13;23.98;;;;;;;3.70;73.34;97406.22;5047689;22;20057;-78
2023/03/09 01:01:32;;;;;;;34.75;22.67;;;;;;;3.70;73.33;97406.22;5012071;28;20054;-77
2023/03/09 01:03:58;;;;;;;34.05;22.30;;;;;;;3.71;73.61;97413.09;5012341;28;20064;-78
2023/03/09 01:06:24;;;;;;;34.50;22.85;;;;;;;3.72;73.39;97398.31;5011812;28;20336;-78
2023/03/09 01:08:52;;;;;;;38.35;22.08;;;;;;;3.72;73.43;97388.75;5011394;28;20054;-78
2023/03/09 01:11:19;;;;;;;35.78;23.30;;;;;;;3.73;73.38;97399.97;4993815;28;20132;-78
2023/03/09 01:13:46;;;;;;;34.47;22.30;;;;;;;3.71;73.13;97396.66;5012009;28;20441;-78
2023/03/09 01:16:12;;;;;;;33.95;22.67;;;;;;;3.71;72.95;97399.25;5011736;28;20050;-78
2023/03/09 01:18:39;;;;;;;35.58;21.50;;;;;;;3.70;73.12;97400.19;5011660;28;20061;-77
2023/03/09 01:21:05;;;;;;;33.20;21.80;;;;;;;3.68;73.25;97392.50;5011816;28;20038;-78
2023/03/09 01:23:32;;;;;;;33.47;22.20;;;;;;;3.67;73.11;97389.97;5010336;28;20141;-77
2023/03/09 01:25:58;;;;;;;35.67;21.80;;;;;;;3.63;72.87;97390.19;5010985;28;20104;-78
2023/03/09 01:28:25;;;;;;;34.20;21.35;;;;;;;3.62;73.42;97387.69;5007418;28;20459;-78
2023/03/09 01:30:51;;;;;;;31.00;21.20;;;;;;;3.60;73.25;97394.75;5018924;28;20133;-78
2023/03/09 01:33:18;;;;;;;30.88;19.80;;;;;;;3.59;73.00;97395.72;5004727;28;20054;-78
2023/03/09 01:35:44;;;;;;;30.85;20.67;;;;;;;3.57;73.40;97402.75;5031109;28;20084;-78
2023/03/09 01:38:11;;;;;;;30.77;20.20;;;;;;;3.55;73.09;97389.84;5030911;28;20053;-78
2023/03/09 01:40:37;;;;;;;31.50;20.63;;;;;;;3.52;73.37;97377.88;5031215;28;20393;-78
2023/03/09 01:43:25;;;;;;;31.13;20.00;;;;;;;3.48;72.88;97368.63;5031065;28;20045;-78
2023/03/09 01:46:19;;;;;;;29.85;18.92;;;;;;;3.47;72.90;97368.72;5030864;28;20045;-78
2023/03/09 01:48:54;;;;;;;29.95;18.67;;;;;;;3.48;73.13;97376.44;5030574;28;20053;-77
2023/03/09 01:51:23;;;;;;;32.47;19.90;;;;;;;3.47;73.59;97371.31;5030937;28;20566;-77
2023/03/09 01:53:52;;;;;;;31.42;19.70;;;;;;;3.48;73.38;97386.03;5013387;28;20053;-78
2023/03/09 01:56:20;;;;;;;30.13;19.83;;;;;;;3.47;73.18;97390.38;5030721;28;20107;-78
2023/03/09 01:58:52;;;;;;;29.88;19.48;;;;;;;3.47;73.39;97390.38;5040230;28;20138;-78
2023/03/09 02:01:18;;;;;;;27.73;18.33;;;;;;;3.48;73.32;97391.22;5050632;28;20091;-78
2023/03/09 02:03:49;;;;;;;25.27;16.92;;;;;;;3.46;73.50;97406.91;5050613;28;20466;-78
2023/03/09 02:06:18;;;;;;;26.50;17.38;;;;;;;3.48;73.44;97407.63;5050323;28;20056;-79
2023/03/09 02:09:09;;;;;;;25.52;16.95;;;;;;;3.45;72.69;97407.03;5050009;28;20103;-79
2023/03/09 02:11:36;;;;;;;24.33;16.30;;;;;;;3.46;73.33;97403.47;5050447;28;20049;-78
2023/03/09 02:14:03;;;;;;;23.67;16.33;;;;;;;3.44;73.33;97408.78;5050649;28;20048;-78
2023/03/09 02:16:29;;;;;;;25.70;16.17;;;;;;;3.44;73.47;97420.97;5050457;28;20048;-78
2023/03/09 02:18:55;;;;;;;24.55;16.73;;;;;;;3.44;73.34;97442.59;5050313;28;20485;-79
2023/03/09 02:21:31;;;;;;;24.00;16.08;;;;;;;3.41;72.95;97437.59;5050404;28;20415;-78
2023/03/09 02:24:33;;;;;;;23.05;15.40;;;;;;;3.41;73.06;97424.59;5050581;28;20594;-78
2023/03/09 02:27:08;;;;;;;20.65;13.65;;;;;;;3.44;73.15;97423.56;5003410;28;20388;-78
2023/03/09 02:29:34;;;;;;;21.25;14.40;;;;;;;3.45;73.43;97428.66;5050510;28;20045;-78
2023/03/09 02:32:01;;;;;;;20.08;13.50;;;;;;;3.45;73.57;97420.88;5050194;28;20565;-79
2023/03/09 02:34:27;;;;;;;21.80;14.90;;;;;;;3.44;73.51;97416.56;5050232;28;20057;-78
2023/03/09 02:36:53;;;;;;;21.15;14.30;;;;;;;3.45;73.74;97418.25;5031612;28;20329;-77
2023/03/09 02:39:32;;;;;;;22.80;15.43;;;;;;;3.42;72.54;97417.63;5050448;28;20053;-78
2023/03/09 02:41:59;;;;;;;20.27;14.32;;;;;;;3.44;73.70;97424.38;5050090;28;20060;-78
2023/03/09 02:44:26;;;;;;;20.45;14.68;;;;;;;3.45;73.38;97425.22;5050196;28;20048;-78
2023/03/09 02:46:52;;;;;;;22.17;15.30;;;;;;;3.44;73.26;97413.97;5049180;28;20098;-78
2023/03/09 02:49:19;;;;;;;20.20;14.63;;;;;;;3.43;73.45;97427.91;5050019;28;20057;-78
2023/03/09 02:51:45;;;;;;;20.52;13.80;;;;;;;3.42;73.24;97441.03;5049800;28;20080;-78
2023/03/09 02:54:11;;;;;;;24.92;15.77;;;;;;;3.42;73.14;97446.22;5049963;28;20056;-79
2023/03/09 02:56:38;;;;;;;21.02;14.77;;;;;;;3.41;73.76;97453.22;5049208;28;20048;-79
2023/03/09 02:59:04;;;;;;;20.27;14.52;;;;;;;3.40;73.33;97448.91;5028491;28;20076;-79
2023/03/09 03:01:30;;;;;;;21.15;15.15;;;;;;;3.42;73.14;97462.66;5030113;28;20049;-78
2023/03/09 03:03:57;;;;;;;20.98;14.55;;;;;;;3.41;73.22;97466.22;5029784;28;20057;-78
2023/03/09 03:06:24;;;;;;;22.20;15.07;;;;;;;3.41;73.26;97458.41;5029883;28;20049;-78
2023/03/09 03:08:50;;;;;;;21.33;14.80;;;;;;;3.40;73.59;97467.13;5029444;28;20088;-77
2023/03/09 03:11:16;;;;;;;22.10;15.57;;;;;;;3.39;73.05;97455.91;5029728;28;20487;-78
2023/03/09 03:13:43;;;;;;;21.30;15.43;;;;;;;3.40;73.58;97467.13;5029882;28;20311;-78
2023/03/09 03:16:09;;;;;;;21.77;15.57;;;;;;;3.38;73.50;97467.25;5028064;28;20103;-77
2023/03/09 03:18:36;;;;;;;23.10;15.73;;;;;;;3.38;73.58;97477.66;5029131;28;20433;-77
2023/03/09 03:21:02;;;;;;;22.13;15.48;;;;;;;3.37;73.63;97483.75;5027800;28;20079;-77
2023/03/09 03:23:29;;;;;;;20.60;14.85;;;;;;;3.38;73.52;97482.00;5029519;28;20522;-78
2023/03/09 03:25:55;;;;;;;22.48;16.02;;;;;;;3.37;73.63;97488.97;5029352;28;20064;-79
2023/03/09 03:28:21;;;;;;;21.45;15.65;;;;;;;3.39;73.77;97488.88;5029160;28;20092;-78
2023/03/09 03:30:51;;;;;;;21.58;14.52;;;;;;;3.39;73.36;97501.88;5029435;28;20389;-79
2023/03/09 03:33:18;;;;;;;21.30;14.55;;;;;;;3.40;73.26;97508.72;5029381;28;20055;-78
2023/03/09 03:35:44;;;;;;;20.70;15.05;;;;;;;3.42;73.36;97503.44;5029312;28;20047;-78
2023/03/09 03:38:11;;;;;;;19.63;14.18;;;;;;;3.43;73.38;97503.34;5029115;28;20458;-78
2023/03/09 03:40:37;;;;;;;19.17;13.80;;;;;;;3.44;73.61;97502.41;5029470;28;20151;-78
2023/03/09 03:43:04;;;;;;;21.05;14.65;;;;;;;3.44;73.37;97507.59;5029370;28;20526;-79
2023/03/09 03:45:30;;;;;;;19.38;14.05;;;;;;;3.43;73.34;97508.53;5028969;28;20078;-78
2023/03/09 03:47:56;;;;;;;19.38;13.73;;;;;;;3.42;73.27;97504.28;5028730;28;20057;-78
2023/03/09 03:50:23;;;;;;;18.30;12.88;;;;;;;3.43;73.11;97508.53;5029255;28;20538;-78
2023/03/09 03:52:49;;;;;;;22.50;15.15;;;;;;;3.40;73.11;97513.94;5029347;28;20095;-78
2023/03/09 03:55:15;;;;;;;20.92;13.65;;;;;;;3.40;73.31;97524.34;5029018;28;20490;-79
2023/03/09 03:57:42;;;;;;;17.42;12.55;;;;;;;3.39;73.19;97533.06;5028363;28;20099;-78
2023/03/09 04:00:12;;;;;;;21.98;13.15;;;;;;;3.39;73.43;97535.69;5049009;28;20565;-78
2023/03/09 04:02:39;;;;;;;18.75;13.52;;;;;;;3.39;73.38;97533.06;5049045;28;20098;-78
2023/03/09 04:05:06;;;;;;;19.90;13.30;;;;;;;3.38;73.54;97536.63;5048868;28;20045;-78
2023/03/09 04:07:33;;;;;;;19.75;13.05;;;;;;;3.39;73.20;97525.28;5048540;28;20131;-78
2023/03/09 04:09:59;;;;;;;17.75;12.57;;;;;;;3.38;73.37;97526.22;5049079;28;20107;-78
2023/03/09 04:12:25;;;;;;;18.52;12.98;;;;;;;3.39;73.40;97526.13;5049125;28;20084;-78
2023/03/09 04:14:52;;;;;;;17.33;12.43;;;;;;;3.39;73.33;97536.53;5048415;28;20053;-78
2023/03/09 04:17:18;;;;;;;16.92;12.57;;;;;;;3.39;73.04;97546.94;5048752;28;20111;-79
2023/03/09 04:19:44;;;;;;;16.85;12.30;;;;;;;3.39;73.27;97566.88;5031331;28;20057;-78
2023/03/09 04:22:11;;;;;;;18.15;12.57;;;;;;;3.38;73.18;97565.22;5048987;28;20140;-78
2023/03/09 04:24:37;;;;;;;19.33;12.60;;;;;;;3.37;73.40;97571.38;5048854;28;20048;-78
2023/03/09 04:27:04;;;;;;;18.42;12.73;;;;;;;3.38;73.19;97575.63;5030571;28;20061;-78
2023/03/09 04:29:30;;;;;;;17.65;12.25;;;;;;;3.38;73.21;97593.81;5048702;28;20110;-78
2023/03/09 04:31:56;;;;;;;17.23;12.07;;;;;;;3.37;73.18;97582.59;5032745;28;20131;-78
2023/03/09 04:34:23;;;;;;;18.20;11.93;;;;;;;3.38;73.50;97594.69;5052586;28;20415;-78
2023/03/09 04:36:49;;;;;;;17.42;12.07;;;;;;;3.38;73.69;97588.63;5033863;28;20573;-78
2023/03/09 04:39:16;;;;;;;14.95;11.15;;;;;;;3.39;73.49;97591.13;5052807;28;20410;-78
2023/03/09 04:41:42;;;;;;;17.52;12.38;;;;;;;3.38;73.47;97589.47;5034712;28;20553;-78
2023/03/09 04:44:09;;;;;;;15.93;11.70;;;;;;;3.38;73.33;97592.06;5034471;28;20050;-78
2023/03/09 04:46:35;;;;;;;15.88;11.13;;;;;;;3.40;73.66;97581.56;5051572;28;20507;-78
2023/03/09 04:49:01;;;;;;;16.30;11.18;;;;;;;3.42;73.06;97589.25;5052188;28;20085;-78
2023/03/09 04:51:29;;;;;;;16.33;11.73;;;;;;;3.40;73.26;97594.56;5034500;28;20049;-78
2023/03/09 04:53:55;;;;;;;16.20;11.45;;;;;;;3.39;73.01;97600.69;5052474;28;20061;-78
2023/03/09 04:56:21;;;;;;;18.05;12.15;;;;;;;3.38;73.42;97605.09;5051938;28;20098;-78
2023/03/09 04:58:48;;;;;;;16.83;11.60;;;;;;;3.39;73.42;97603.28;5051570;28;20095;-78
2023/03/09 05:01:14;;;;;;;15.63;10.55;;;;;;;3.41;73.68;97608.41;5052160;28;20049;-78
2023/03/09 05:03:41;;;;;;;16.08;11.32;;;;;;;3.41;73.44;97617.06;5052248;28;20087;-79
2023/03/09 05:06:07;;;;;;;16.27;11.73;;;;;;;3.41;73.27;97604.06;5051601;28;20056;-79
2023/03/09 05:08:34;;;;;;;15.52;11.35;;;;;;;3.42;73.25;97610.06;5051640;28;20049;-79
2023/03/09 05:11:00;;;;;;;15.38;11.10;;;;;;;3.41;73.44;97608.41;5051891;28;20049;-79
2023/03/09 05:13:27;;;;;;;16.20;11.23;;;;;;;3.41;73.11;97611.84;5051748;28;20060;-78
2023/03/09 05:15:53;;;;;;;15.40;10.60;;;;;;;3.44;73.22;97621.22;5051617;28;20197;-79
2023/03/09 05:18:20;;;;;;;15.73;11.43;;;;;;;3.45;73.13;97625.50;5051297;28;20458;-78
2023/03/09 05:20:46;;;;;;;15.18;10.60;;;;;;;3.47;73.28;97636.63;5051627;28;20063;-78
2023/03/09 05:23:13;;;;;;;15.30;10.73;;;;;;;3.48;73.31;97635.72;5051754;28;20053;-79
2023/03/09 05:25:39;;;;;;;16.38;10.82;;;;;;;3.48;73.29;97652.13;5051143;28;20053;-79
2023/03/09 05:28:05;;;;;;;16.05;11.32;;;;;;;3.48;73.47;97643.50;5051036;28;20048;-78
2023/03/09 05:30:32;;;;;;;16.38;10.75;;;;;;;3.47;73.16;97629.66;5051599;28;20154;-78
2023/03/09 05:32:58;;;;;;;15.73;11.15;;;;;;;3.48;72.92;97644.34;5051170;28;20114;-78
2023/03/09 05:35:25;;;;;;;14.77;10.85;;;;;;;3.48;73.37;97644.34;5051093;28;20080;-78
2023/03/09 05:37:51;;;;;;;15.80;11.02;;;;;;;3.48;72.87;97639.13;5051140;28;20119;-78
2023/03/09 05:40:21;;;;;;;16.42;11.45;;;;;;;3.49;73.35;97658.19;5051187;28;20499;-78
2023/03/09 05:42:47;;;;;;;14.57;10.75;;;;;;;3.50;73.30;97667.66;5050943;28;20057;-78
2023/03/09 05:45:13;;;;;;;16.13;11.02;;;;;;;3.49;73.02;97671.19;5050649;28;20198;-78
2023/03/09 05:47:40;;;;;;;15.55;10.68;;;;;;;3.49;73.11;97674.63;5050869;28;20068;-78
2023/03/09 05:50:08;;;;;;;15.82;10.98;;;;;;;3.48;73.19;97683.34;5051586;28;20085;-78
2023/03/09 05:52:34;;;;;;;15.38;10.75;;;;;;;3.47;73.07;97686.03;5051025;28;20053;-78
2023/03/09 05:55:00;;;;;;;18.10;12.48;;;;;;;3.47;73.19;97694.69;5050649;28;20392;-78
2023/03/09 05:57:26;;;;;;;16.27;10.98;;;;;;;3.44;72.70;97692.25;5030926;28;20095;-78
2023/03/09 05:59:53;;;;;;;15.52;11.32;;;;;;;3.44;73.39;97691.44;5042407;28;20053;-80
2023/03/09 06:02:19;;;;;;;16.58;11.05;;;;;;;3.44;73.05;97687.06;5042259;28;20329;-78
2023/03/09 06:04:52;;;;;;;16.80;11.50;;;;;;;3.44;72.72;97699.25;5050013;28;20368;-78
2023/03/09 06:07:19;;;;;;;;;;;;;;;3.45;72.15;97708.72;5049758;28;20045;-79
2023/03/09 06:09:45;;;;;;;15.75;10.57;;;;;;;3.49;72.86;97710.22;5050032;28;19979;-79
2023/03/09 06:12:11;;;;;;;16.48;11.25;;;;;;;3.48;73.21;97718.94;5050159;28;20084;-79
2023/03/09 06:14:38;;;;;;;17.08;12.23;;;;;;;3.47;73.11;97717.25;5050058;28;20107;-79
2023/03/09 06:17:05;;;;;;;16.55;12.00;;;;;;;3.48;73.10;97716.34;5049123;28;20126;-78
2023/03/09 06:19:31;;;;;;;17.73;11.98;;;;;;;3.50;73.24;97701.47;5050790;28;20099;-78
2023/03/09 06:21:57;;;;;;;17.33;11.43;;;;;;;3.49;72.86;97705.84;5050384;28;20458;-79
2023/03/09 06:24:24;;;;;;;18.73;13.15;;;;;;;3.49;72.86;97707.59;5050341;28;20494;-79
2023/03/09 06:26:50;;;;;;;18.02;12.88;;;;;;;3.49;73.13;97703.25;5031769;28;20091;-78
2023/03/09 06:29:17;;;;;;;20.38;12.10;;;;;;;3.51;73.46;97711.78;5050299;28;20118;-79
2023/03/09 06:31:43;;;;;;;19.52;12.55;;;;;;;3.51;73.38;97724.78;5032534;28;20087;-78
2023/03/09 06:34:09;;;;;;;18.85;12.82;;;;;;;3.54;73.63;97728.97;5050316;28;20080;-79
2023/03/09 06:36:36;;;;;;;17.10;12.07;;;;;;;3.55;73.23;97742.81;5049388;28;20404;-79
2023/03/09 06:39:02;;;;;;;17.70;12.52;;;;;;;3.56;73.46;97740.13;5050435;28;20049;-78
2023/03/09 06:41:31;;;;;;;17.52;12.32;;;;;;;3.57;73.13;97738.34;5050065;28;20049;-79
2023/03/09 06:43:58;;;;;;;19.10;13.38;;;;;;;3.58;73.53;97746.06;5050250;28;20076;-78
2023/03/09 06:46:25;;;;;;;20.33;13.65;;;;;;;3.60;73.10;97756.38;5049740;28;20106;-79
2023/03/09 06:48:51;;;;;;;16.80;12.05;;;;;;;3.61;73.30;97745.88;5049566;28;20111;-78
2023/03/09 06:51:17;;;;;;;17.85;12.40;;;;;;;3.63;73.45;97740.59;5050196;28;20139;-78
2023/03/09 06:53:44;;;;;;;20.73;14.05;;;;;;;3.64;73.09;97752.66;5050360;28;20084;-78
2023/03/09 06:56:11;;;;;;;19.38;13.13;;;;;;;3.65;73.11;97746.53;5049537;28;20139;-78
2023/03/09 06:58:37;;;;;;;16.52;11.80;;;;;;;3.68;73.30;97759.34;5167239;22;20124;-80
2023/03/09 07:01:12;;;;;;;17.98;12.70;;;;;;;3.68;72.66;97761.97;5011069;28;20049;-80
2023/03/09 07:03:39;;;;;;;19.55;12.68;;;;;;;3.72;73.35;97771.25;5011243;28;20085;-79
2023/03/09 07:06:06;;;;;;;18.95;13.52;;;;;;;3.74;73.33;97787.59;5010825;28;20053;-80
2023/03/09 07:08:33;;;;;;;18.55;12.82;;;;;;;3.75;73.48;97794.50;4993386;28;20103;-80
2023/03/09 07:11:00;;;;;;;18.33;12.82;;;;;;;3.77;73.43;97796.97;5010971;28;20576;-78
2023/03/09 07:13:26;;;;;;;21.95;13.90;;;;;;;3.79;73.24;97797.72;5011211;28;20042;-80
2023/03/09 07:15:53;;;;;;;21.13;13.27;;;;;;;3.81;73.20;97793.25;4993364;28;20046;-79
2023/03/09 07:18:19;;;;;;;19.48;13.35;;;;;;;3.82;73.38;97801.91;4993178;28;20140;-79
2023/03/09 07:20:46;;;;;;;21.42;13.75;;;;;;;3.84;72.99;97820.84;5010921;28;20081;-81
2023/03/09 07:23:13;;;;;;;20.10;13.60;;;;;;;3.83;72.73;97814.84;5011119;28;20054;-81
2023/03/09 07:25:39;;;;;;;21.33;13.80;;;;;;;3.83;73.10;97809.63;5010432;28;20491;-83
2023/03/09 07:28:08;;;;;;;21.88;13.95;;;;;;;3.82;72.83;97810.56;5010384;28;20554;-82
2023/03/09 07:30:38;;;;;;;20.38;14.20;;;;;;;3.83;72.83;97811.38;5010800;28;20149;-81
2023/03/09 07:33:05;;;;;;;22.10;14.25;;;;;;;3.85;73.33;97810.34;5010660;28;20434;-82
2023/03/09 07:35:31;;;;;;;21.55;14.45;;;;;;;3.84;73.35;97808.69;5010751;28;20060;-81
2023/03/09 07:37:58;;;;;;;18.52;14.15;;;;;;;3.87;72.95;97811.13;5009337;28;20053;-81
2023/03/09 07:40:24;;;;;;;22.38;14.70;;;;;;;3.91;73.28;97816.97;5009918;28;20050;-81
2023/03/09 07:42:53;;;;;;;20.88;14.43;;;;;;;3.93;73.04;97825.53;5011290;28;20054;-81
2023/03/09 07:45:20;;;;;;;23.35;14.73;;;;;;;3.95;73.30;97826.25;5028082;28;20049;-82
2023/03/09 07:47:47;;;;;;;20.42;14.35;;;;;;;3.98;73.27;97833.88;5012053;28;20064;-82
2023/03/09 07:50:14;;;;;;;22.33;14.50;;;;;;;4.01;73.60;97835.47;5012559;28;20053;-81
2023/03/09 07:52:41;;;;;;;23.67;14.95;;;;;;;4.03;73.52;97834.44;5021757;28;20406;-81
2023/03/09 07:55:11;;;;;;;22.48;15.45;;;;;;;4.07;73.05;97829.06;5010023;28;20050;-81
2023/03/09 07:57:38;;;;;;;20.95;14.48;;;;;;;4.12;73.32;97840.00;5009867;28;20050;-81
2023/03/09 08:00:11;;;;;;;21.55;14.43;;;;;;;4.15;72.99;97834.63;5025420;28;20053;-79
2023/03/09 08:02:41;;;;;;;;;;;;;;;4.19;71.97;97837.88;5013420;28;20100;-80
2023/03/09 08:05:10;;;;;;;20.08;13.27;;;;;;;4.25;72.85;97843.53;5030108;28;19948;-81
2023/03/09 08:07:37;;;;;;;24.52;15.50;;;;;;;4.27;73.22;97852.06;5032532;28;20049;-81
2023/03/09 08:10:04;;;;;;;23.85;15.93;;;;;;;4.27;72.70;97862.50;5034187;28;20060;-79
2023/03/09 08:12:30;;;;;;;21.52;15.30;;;;;;;4.29;72.78;97859.78;5034093;28;20045;-81
2023/03/09 08:14:57;;;;;;;23.33;16.10;;;;;;;4.30;72.68;97866.69;5033765;28;20072;-80
2023/03/09 08:17:24;;;;;;;25.38;17.77;;;;;;;4.31;72.75;97868.38;5033798;28;20111;-79
2023/03/09 08:19:50;;;;;;;25.25;17.00;;;;;;;4.33;73.25;97869.09;5033873;28;20457;-81
2023/03/09 08:22:16;;;;;;;25.55;17.83;;;;;;;4.37;73.12;97875.78;5033927;28;20046;-81
2023/03/09 08:24:43;;;;;;;24.77;16.00;;;;;;;4.41;73.25;97879.06;5033814;28;20399;-80
2023/03/09 08:27:09;;;;;;;26.60;16.67;;;;;;;4.47;73.00;97888.25;5033473;28;20536;-80
2023/03/09 08:29:36;;;;;;;24.85;16.55;;;;;;;4.49;73.30;97895.03;5033773;28;20060;-81
2023/03/09 08:32:06;;;;;;;23.70;15.68;;;;;;;4.53;72.48;97906.13;5033995;28;20080;-80
2023/03/09 08:34:33;;;;;;;23.77;16.40;;;;;;;4.59;73.05;97900.50;5016251;28;20046;-82
2023/03/09 08:37:00;;;;;;;24.70;16.27;;;;;;;4.64;72.81;97908.06;5015451;28;20049;-81
2023/03/09 08:39:26;;;;;;;24.75;16.73;;;;;;;4.65;72.52;97904.50;5033642;28;20050;-81
2023/03/09 08:41:53;;;;;;;23.17;15.90;;;;;;;4.65;72.54;97907.97;5033578;28;20060;-81
2023/03/09 08:44:19;;;;;;;23.63;15.90;;;;;;;4.64;72.41;97913.25;5033752;28;20049;-81
2023/03/09 08:46:45;;;;;;;23.33;15.75;;;;;;;4.64;72.43;97915.88;5033145;28;20057;-81
2023/03/09 08:49:12;;;;;;;21.67;15.00;;;;;;;4.63;72.49;97924.63;5033654;28;20057;-80
2023/03/09 08:51:38;;;;;;;24.48;15.60;;;;;;;4.61;72.53;97926.47;5033490;28;20045;-80
2023/03/09 08:54:05;;;;;;;22.92;15.60;;;;;;;4.60;72.25;97933.44;5033392;28;20163;-81
2023/03/09 08:56:31;;;;;;;24.67;16.55;;;;;;;4.57;72.25;97931.06;5033108;28;20049;-81
2023/03/09 08:58:58;;;;;;;24.08;16.23;;;;;;;4.56;72.63;97930.19;5033089;28;20053;-81
2023/03/09 09:01:24;;;;;;;23.45;15.38;;;;;;;4.54;72.83;97926.03;5033540;28;20107;-81
2023/03/09 09:03:51;;;;;;;24.95;16.40;;;;;;;4.55;72.63;97936.34;5033296;28;20092;-81
2023/03/09 09:06:17;;;;;;;26.65;16.17;;;;;;;4.55;72.63;97933.75;5032906;28;20049;-79
2023/03/09 09:08:44;;;;;;;22.58;15.15;;;;;;;4.56;72.55;97939.78;5032853;28;20049;-81
2023/03/09 09:11:14;;;;;;;26.55;16.52;;;;;;;4.56;72.38;97951.03;5032989;28;20450;-79
2023/03/09 09:13:41;;;;;;;23.27;15.68;;;;;;;4.60;72.98;97958.69;5033401;28;20099;-81
2023/03/09 09:16:09;;;;;;;25.88;16.38;;;;;;;4.62;73.01;97956.81;5032746;28;20053;-81
2023/03/09 09:18:36;;;;;;;25.92;17.40;;;;;;;4.64;72.95;97958.38;5031686;28;20088;-80
2023/03/09 09:21:10;;;;;;;25.05;15.95;;;;;;;4.69;72.94;97963.31;5032899;28;20052;-81
2023/03/09 09:23:38;;;;;;;27.17;17.35;;;;;;;4.75;73.23;97972.53;5032664;28;20092;-79
2023/03/09 09:26:06;;;;;;;24.42;15.95;;;;;;;4.82;73.34;97969.44;5032597;28;20103;-81
2023/03/09 09:28:33;;;;;;;25.38;17.10;;;;;;;4.89;73.03;97975.13;5032504;28;20060;-81
2023/03/09 09:31:02;;;;;;;25.13;16.30;;;;;;;4.95;72.67;97974.75;5015054;28;20482;-81
2023/03/09 09:33:29;;;;;;;21.92;14.77;;;;;;;5.01;72.59;97972.69;5032555;28;20159;-80
2023/03/09 09:35:57;;;;;;;23.63;14.68;;;;;;;5.04;72.55;97969.88;5032136;28;20053;-80
2023/03/09 09:38:26;;;;;;;23.52;15.75;;;;;;;5.06;72.52;97963.63;5014786;28;20395;-80
2023/03/09 09:40:58;;;;;;;22.92;15.40;;;;;;;5.09;71.79;97968.63;5032634;28;20050;-80
2023/03/09 09:43:26;;;;;;;27.05;17.05;;;;;;;5.14;72.45;97967.50;5024628;28;20060;-81
2023/03/09 09:45:55;;;;;;;28.00;16.92;;;;;;;5.15;71.96;97963.97;5014586;28;20057;-81
2023/03/09 09:48:22;;;;;;;24.10;15.80;;;;;;;5.18;72.24;97966.38;5032097;28;20603;-80
2023/03/09 09:51:36;;;;;;;23.27;16.02;;;;;;;5.16;71.11;97955.22;5014752;28;20052;-81
2023/03/09 09:54:22;;;;;;;23.10;16.08;;;;;;;5.19;70.88;97958.47;5029323;28;20064;-81
2023/03/09 09:56:52;;;;;;;23.10;15.13;;;;;;;5.24;71.98;97966.00;5031554;28;20046;-80
2023/03/09 09:59:27;;;;;;;27.05;16.90;;;;;;;5.22;70.89;97967.88;5031915;28;20049;-81
2023/03/09 10:02:26;;;;;;;24.90;16.63;;;;;;;5.22;70.79;97988.72;5032223;28;20045;-82
2023/03/09 10:05:04;;;;;;;24.77;15.30;;;;;;;5.24;70.99;97999.94;5027327;28;20095;-80
2023/03/09 10:07:32;;;;;;;21.58;14.43;;;;;;;5.27;72.48;97989.28;5024173;28;20049;-80
2023/03/09 10:10:02;;;;;;;23.63;15.50;;;;;;;5.30;71.79;97996.91;5032034;28;20057;-80
2023/03/09 10:12:29;;;;;;;25.88;16.83;;;;;;;5.33;72.34;98008.91;5024610;28;20455;-80
2023/03/09 10:15:21;;;;;;;24.67;16.40;;;;;;;5.34;71.07;98019.25;5031432;28;20403;-81
2023/03/09 10:17:55;;;;;;;23.57;16.57;;;;;;;5.40;71.63;98018.03;5008954;28;20620;-81
2023/03/09 10:20:29;;;;;;;26.35;17.15;;;;;;;5.44;71.98;98019.53;5014104;28;20418;-79
2023/03/09 10:22:56;;;;;;;23.98;15.85;;;;;;;5.51;72.52;98025.19;5014207;28;20049;-80
2023/03/09 10:25:25;;;;;;;26.10;17.02;;;;;;;5.57;72.35;98027.38;5031338;28;20064;-78
2023/03/09 10:28:01;;;;;;;27.05;16.98;;;;;;;5.62;71.97;98027.09;5031283;28;20053;-80
2023/03/09 10:30:55;;;;;;;27.60;17.45;;;;;;;5.67;71.14;98032.00;5023450;28;20061;-80
2023/03/09 10:33:49;;;;;;;24.13;15.65;;;;;;;5.76;71.09;98027.97;5031571;28;20144;-80
2023/03/09 10:36:41;;;;;;;25.58;16.75;;;;;;;5.83;70.93;98043.13;5031150;28;20076;-80
2023/03/09 10:39:14;;;;;;;25.92;17.27;;;;;;;5.91;71.16;98058.28;5031586;28;20061;-80
2023/03/09 10:41:41;;;;;;;;;;;;;;;5.95;70.55;98059.75;5031829;28;20050;-80
2023/03/09 10:44:12;;;;;;;23.20;14.52;;;;;;;6.02;70.89;98062.00;5013672;28;19983;-80
2023/03/09 10:46:54;;;;;;;24.60;16.10;;;;;;;6.00;70.17;98062.09;5030486;28;20465;-80
2023/03/09 10:49:21;;;;;;;18.25;11.50;;;;;;;6.05;71.64;98043.56;5031308;28;20045;-81
2023/03/09 10:52:01;;;;;;;25.75;15.40;;;;;;;6.03;70.15;98051.47;5031062;28;20057;-80
2023/03/09 10:54:41;;;;;;;26.70;17.60;;;;;;;6.05;69.71;98046.97;5031204;28;20152;-80
2023/03/09 10:57:31;;;;;;;30.42;17.05;;;;;;;6.06;69.73;98058.28;5030479;28;20104;-80
2023/03/09 11:00:14;;;;;;;27.58;17.42;;;;;;;6.07;69.96;98060.78;5030839;28;20402;-80
2023/03/09 11:02:51;;;;;;;23.80;16.25;;;;;;;6.08;69.62;98045.94;5025102;28;20116;-80
2023/03/09 11:05:22;;;;;;;24.58;16.92;;;;;;;6.11;70.45;98043.13;5030639;28;20060;-80
2023/03/09 11:07:53;;;;;;;24.08;16.55;;;;;;;6.11;70.18;98040.50;5030115;28;20124;-80
2023/03/09 11:10:31;;;;;;;28.27;17.63;;;;;;;6.09;69.74;98043.22;5013469;28;20057;-80
2023/03/09 11:13:00;;;;;;;29.70;18.05;;;;;;;6.12;70.81;98050.88;5030719;28;20491;-80
2023/03/09 11:15:31;;;;;;;26.88;18.13;;;;;;;6.13;70.34;98057.75;5030537;28;20087;-80
2023/03/09 11:17:59;;;;;;;28.17;17.92;;;;;;;6.17;71.35;98054.94;5030415;28;20049;-81
2023/03/09 11:20:38;;;;;;;26.60;18.08;;;;;;;6.14;69.82;98058.59;5030590;28;20053;-81
2023/03/09 11:23:16;;;;;;;28.10;18.58;;;;;;;6.17;69.90;98070.63;5030737;28;20081;-81
2023/03/09 11:25:43;;;;;;;26.95;18.45;;;;;;;6.22;71.34;98072.00;5030545;28;20049;-80
2023/03/09 11:28:25;;;;;;;24.27;17.13;;;;;;;6.21;69.91;98074.72;5030501;28;20049;-80
2023/03/09 11:30:55;;;;;;;30.15;19.30;;;;;;;6.26;70.93;98080.47;5030694;28;20095;-80
2023/03/09 11:33:24;;;;;;;26.30;17.95;;;;;;;6.30;71.14;98086.31;5030629;28;20095;-81